sensor_id;sensor_type;location;lat;lon;timestamp;noise_LAeq;noise_LA_min;noise_LA_max;noise_LA01;noise_LA95
74234;Laerm;62591;55.764;37.718;2024-01-15T00:00:05;42.34;38.07;57.19;;
74234;Laerm;62591;55.764;37.718;2024-01-15T00:02:38;47.03;38.28;56.73;;
74234;Laerm;62591;55.764;37.718;2024-01-15T00:05:07;49.72;40.05;56.23;;
74234;Laerm;62591;55.764;37.718;2024-01-15T00:07:36;47.04;38.43;60.96;;
74234;Laerm;62591;55.764;37.718;2024-01-15T00:10:05;41.24;37.89;46.76;;
74234;Laerm;62591;55.764;37.718;2024-01-15T00:12:35;40.81;37.45;45.78;;
74234;Laerm;62591;55.764;37.718;2024-01-15T00:15:06;40.56;37.21;46.55;;
74234;Laerm;62591;55.764;37.718;2024-01-15T00:17:35;40.87;36.75;47.31;;
74234;Laerm;62591;55.764;37.718;2024-01-15T00:20:05;40.99;37.57;56.14;;
74234;Laerm;62591;55.764;37.718;2024-01-15T00:22:34;44.27;37.15;53.80;;
74234;Laerm;62591;55.764;37.718;2024-01-15T00:25:04;40.09;36.67;44.65;;
74234;Laerm;62591;55.764;37.718;2024-01-15T00:27:35;40.94;37.69;47.09;;
74234;Laerm;62591;55.764;37.718;2024-01-15T00:30:07;41.39;37.98;46.24;;
74234;Laerm;62591;55.764;37.718;2024-01-15T00:32:36;48.93;38.85;59.56;;
74234;Laerm;62591;55.764;37.718;2024-01-15T00:35:06;52.13;40.98;63.44;;
74234;Laerm;62591;55.764;37.718;2024-01-15T00:37:35;47.62;38.55;61.71;;
74234;Laerm;62591;55.764;37.718;2024-01-15T00:40:04;41.82;38.76;46.65;;
74234;Laerm;62591;55.764;37.718;2024-01-15T00:42:35;43.24;39.05;48.25;;
74234;Laerm;62591;55.764;37.718;2024-01-15T00:45:06;45.61;39.56;53.75;;
74234;Laerm;62591;55.764;37.718;2024-01-15T00:47:36;45.42;38.88;52.87;;
74234;Laerm;62591;55.764;37.718;2024-01-15T00:50:05;44.61;37.91;52.99;;
74234;Laerm;62591;55.764;37.718;2024-01-15T00:52:35;43.95;38.78;52.15;;
74234;Laerm;62591;55.764;37.718;2024-01-15T00:55:05;44.41;38.41;52.23;;
74234;Laerm;62591;55.764;37.718;2024-01-15T00:57:34;46.46;39.00;56.03;;
74234;Laerm;62591;55.764;37.718;2024-01-15T01:00:06;41.68;37.82;47.59;;
74234;Laerm;62591;55.764;37.718;2024-01-15T01:02:36;41.77;37.77;46.22;;
74234;Laerm;62591;55.764;37.718;2024-01-15T01:05:05;41.30;38.13;44.56;;
74234;Laerm;62591;55.764;37.718;2024-01-15T01:07:34;41.56;37.64;46.49;;
74234;Laerm;62591;55.764;37.718;2024-01-15T01:10:04;41.53;37.73;45.25;;
74234;Laerm;62591;55.764;37.718;2024-01-15T01:12:34;41.72;38.18;44.68;;
74234;Laerm;62591;55.764;37.718;2024-01-15T01:15:03;51.26;38.34;61.64;;
74234;Laerm;62591;55.764;37.718;2024-01-15T01:17:33;50.78;39.65;58.29;;
74234;Laerm;62591;55.764;37.718;2024-01-15T01:20:04;41.20;37.92;45.19;;
74234;Laerm;62591;55.764;37.718;2024-01-15T01:22:36;41.22;38.04;45.28;;
74234;Laerm;62591;55.764;37.718;2024-01-15T01:25:05;41.71;37.61;49.85;;
74234;Laerm;62591;55.764;37.718;2024-01-15T01:27:35;41.98;38.43;49.94;;
74234;Laerm;62591;55.764;37.718;2024-01-15T01:30:05;42.94;38.12;51.05;;
74234;Laerm;62591;55.764;37.718;2024-01-15T01:32:36;49.01;38.91;63.15;;
74234;Laerm;62591;55.764;37.718;2024-01-15T01:35:05;43.80;38.83;53.08;;
74234;Laerm;62591;55.764;37.718;2024-01-15T01:37:35;43.99;38.02;55.91;;
74234;Laerm;62591;55.764;37.718;2024-01-15T01:40:05;43.43;38.14;54.96;;
74234;Laerm;62591;55.764;37.718;2024-01-15T01:42:34;44.82;38.47;54.50;;
74234;Laerm;62591;55.764;37.718;2024-01-15T01:45:03;44.17;38.66;55.35;;
74234;Laerm;62591;55.764;37.718;2024-01-15T01:47:32;42.27;38.35;54.79;;
74234;Laerm;62591;55.764;37.718;2024-01-15T01:50:03;43.45;37.89;63.42;;
74234;Laerm;62591;55.764;37.718;2024-01-15T01:52:33;41.82;37.61;50.59;;
74234;Laerm;62591;55.764;37.718;2024-01-15T01:55:03;41.15;37.80;48.11;;
74234;Laerm;62591;55.764;37.718;2024-01-15T01:57:34;44.35;38.74;55.92;;
74234;Laerm;62591;55.764;37.718;2024-01-15T02:00:05;41.53;38.08;45.88;;
74234;Laerm;62591;55.764;37.718;2024-01-15T02:02:40;42.37;37.76;48.91;;
74234;Laerm;62591;55.764;37.718;2024-01-15T02:05:12;41.68;37.58;49.97;;
74234;Laerm;62591;55.764;37.718;2024-01-15T02:07:44;43.90;38.98;53.44;;
74234;Laerm;62591;55.764;37.718;2024-01-15T02:10:13;42.64;38.61;49.17;;
74234;Laerm;62591;55.764;37.718;2024-01-15T02:12:45;41.88;38.54;45.63;;
74234;Laerm;62591;55.764;37.718;2024-01-15T02:15:16;42.22;37.92;51.09;;
74234;Laerm;62591;55.764;37.718;2024-01-15T02:17:59;45.26;38.23;55.62;;
74234;Laerm;62591;55.764;37.718;2024-01-15T02:20:31;41.99;38.60;47.72;;
74234;Laerm;62591;55.764;37.718;2024-01-15T02:23:12;44.46;38.10;50.47;;
74234;Laerm;62591;55.764;37.718;2024-01-15T02:25:41;43.24;38.96;53.73;;
74234;Laerm;62591;55.764;37.718;2024-01-15T02:28:12;45.08;39.08;57.26;;
74234;Laerm;62591;55.764;37.718;2024-01-15T02:30:42;42.85;38.67;48.48;;
74234;Laerm;62591;55.764;37.718;2024-01-15T02:33:12;43.62;38.67;50.15;;
74234;Laerm;62591;55.764;37.718;2024-01-15T02:35:41;43.40;38.97;48.61;;
74234;Laerm;62591;55.764;37.718;2024-01-15T02:38:12;43.19;39.49;57.70;;
74234;Laerm;62591;55.764;37.718;2024-01-15T02:40:41;47.16;40.01;57.97;;
74234;Laerm;62591;55.764;37.718;2024-01-15T02:43:10;47.19;42.36;55.87;;
74234;Laerm;62591;55.764;37.718;2024-01-15T02:45:39;46.81;42.82;52.92;;
74234;Laerm;62591;55.764;37.718;2024-01-15T02:48:08;45.86;40.21;61.22;;
74234;Laerm;62591;55.764;37.718;2024-01-15T02:50:37;47.55;39.75;61.46;;
74234;Laerm;62591;55.764;37.718;2024-01-15T02:53:05;45.69;40.94;58.03;;
74234;Laerm;62591;55.764;37.718;2024-01-15T02:55:36;43.60;39.58;49.45;;
74234;Laerm;62591;55.764;37.718;2024-01-15T02:58:04;43.92;39.70;48.01;;
74234;Laerm;62591;55.764;37.718;2024-01-15T03:00:33;43.36;38.97;53.60;;
74234;Laerm;62591;55.764;37.718;2024-01-15T03:03:02;45.25;39.22;56.71;;
74234;Laerm;62591;55.764;37.718;2024-01-15T03:05:31;45.08;39.81;55.60;;
74234;Laerm;62591;55.764;37.718;2024-01-15T03:08:00;45.29;38.60;54.16;;
74234;Laerm;62591;55.764;37.718;2024-01-15T03:10:29;42.87;39.87;54.63;;
74234;Laerm;62591;55.764;37.718;2024-01-15T03:12:59;43.04;39.67;52.10;;
74234;Laerm;62591;55.764;37.718;2024-01-15T03:15:28;43.43;39.71;53.66;;
74234;Laerm;62591;55.764;37.718;2024-01-15T03:17:57;43.13;39.50;49.93;;
74234;Laerm;62591;55.764;37.718;2024-01-15T03:20:27;49.70;40.15;62.37;;
74234;Laerm;62591;55.764;37.718;2024-01-15T03:22:56;43.93;39.55;57.99;;
74234;Laerm;62591;55.764;37.718;2024-01-15T03:25:25;44.52;40.26;57.27;;
74234;Laerm;62591;55.764;37.718;2024-01-15T03:27:53;44.08;40.15;52.00;;
74234;Laerm;62591;55.764;37.718;2024-01-15T03:30:24;43.94;40.07;56.63;;
74234;Laerm;62591;55.764;37.718;2024-01-15T03:32:53;43.66;40.55;47.39;;
74234;Laerm;62591;55.764;37.718;2024-01-15T03:35:22;45.42;40.42;55.80;;
74234;Laerm;62591;55.764;37.718;2024-01-15T03:37:51;45.79;40.62;56.97;;
74234;Laerm;62591;55.764;37.718;2024-01-15T03:40:19;43.71;40.35;47.22;;
74234;Laerm;62591;55.764;37.718;2024-01-15T03:42:50;44.43;40.41;52.15;;
74234;Laerm;62591;55.764;37.718;2024-01-15T03:45:19;44.07;40.59;49.00;;
74234;Laerm;62591;55.764;37.718;2024-01-15T03:47:49;46.55;40.60;57.82;;
74234;Laerm;62591;55.764;37.718;2024-01-15T03:50:18;49.45;41.31;60.61;;
74234;Laerm;62591;55.764;37.718;2024-01-15T03:52:47;46.45;41.39;54.26;;
74234;Laerm;62591;55.764;37.718;2024-01-15T03:55:16;48.13;42.03;56.17;;
74234;Laerm;62591;55.764;37.718;2024-01-15T03:57:45;47.17;42.25;64.67;;
74234;Laerm;62591;55.764;37.718;2024-01-15T04:00:15;48.57;41.18;63.68;;
74234;Laerm;62591;55.764;37.718;2024-01-15T04:02:45;49.71;44.15;59.86;;
74234;Laerm;62591;55.764;37.718;2024-01-15T04:05:15;47.14;41.77;63.91;;
74234;Laerm;62591;55.764;37.718;2024-01-15T04:07:45;47.98;42.32;64.08;;
74234;Laerm;62591;55.764;37.718;2024-01-15T04:10:14;45.99;41.74;55.83;;
74234;Laerm;62591;55.764;37.718;2024-01-15T04:12:44;45.81;41.76;50.38;;
74234;Laerm;62591;55.764;37.718;2024-01-15T04:15:14;46.79;42.17;59.52;;
74234;Laerm;62591;55.764;37.718;2024-01-15T04:17:43;47.40;41.27;59.01;;
74234;Laerm;62591;55.764;37.718;2024-01-15T04:20:14;48.37;41.57;58.60;;
74234;Laerm;62591;55.764;37.718;2024-01-15T04:22:44;47.06;41.06;64.09;;
74234;Laerm;62591;55.764;37.718;2024-01-15T04:25:12;49.45;41.37;71.66;;
74234;Laerm;62591;55.764;37.718;2024-01-15T04:27:42;52.43;42.06;71.26;;
74234;Laerm;62591;55.764;37.718;2024-01-15T04:30:13;49.51;42.18;64.14;;
74234;Laerm;62591;55.764;37.718;2024-01-15T04:32:42;50.95;43.85;64.91;;
74234;Laerm;62591;55.764;37.718;2024-01-15T04:35:12;49.44;43.02;61.67;;
74234;Laerm;62591;55.764;37.718;2024-01-15T04:37:44;46.65;41.88;62.99;;
74234;Laerm;62591;55.764;37.718;2024-01-15T04:40:13;46.23;41.88;52.87;;
74234;Laerm;62591;55.764;37.718;2024-01-15T04:42:43;47.43;43.29;60.75;;
74234;Laerm;62591;55.764;37.718;2024-01-15T04:45:13;47.61;42.80;57.87;;
74234;Laerm;62591;55.764;37.718;2024-01-15T04:47:42;48.10;41.99;57.94;;
74234;Laerm;62591;55.764;37.718;2024-01-15T04:50:12;49.57;42.41;63.43;;
74234;Laerm;62591;55.764;37.718;2024-01-15T04:52:40;46.06;41.98;50.49;;
74234;Laerm;62591;55.764;37.718;2024-01-15T04:55:11;47.51;42.65;60.04;;
74234;Laerm;62591;55.764;37.718;2024-01-15T04:57:39;47.73;43.69;57.76;;
74234;Laerm;62591;55.764;37.718;2024-01-15T05:00:09;47.06;43.49;57.88;;
74234;Laerm;62591;55.764;37.718;2024-01-15T05:02:38;48.47;44.23;58.28;;
74234;Laerm;62591;55.764;37.718;2024-01-15T05:05:07;48.53;43.76;61.54;;
74234;Laerm;62591;55.764;37.718;2024-01-15T05:07:36;46.70;43.60;59.12;;
74234;Laerm;62591;55.764;37.718;2024-01-15T05:10:06;48.68;43.45;60.84;;
74234;Laerm;62591;55.764;37.718;2024-01-15T05:12:36;46.88;43.48;61.50;;
74234;Laerm;62591;55.764;37.718;2024-01-15T05:15:05;50.34;43.26;65.94;;
74234;Laerm;62591;55.764;37.718;2024-01-15T05:17:34;47.79;42.29;60.46;;
74234;Laerm;62591;55.764;37.718;2024-01-15T05:22:51;48.60;42.66;63.64;;
74234;Laerm;62591;55.764;37.718;2024-01-15T05:25:20;46.93;42.06;64.06;;
74234;Laerm;62591;55.764;37.718;2024-01-15T05:27:50;49.09;42.63;64.60;;
74234;Laerm;62591;55.764;37.718;2024-01-15T05:30:19;47.09;42.57;65.83;;
74234;Laerm;62591;55.764;37.718;2024-01-15T05:32:48;50.17;43.33;61.84;;
74234;Laerm;62591;55.764;37.718;2024-01-15T05:35:17;46.95;42.68;59.90;;
74234;Laerm;62591;55.764;37.718;2024-01-15T05:37:46;46.51;42.63;62.56;;
74234;Laerm;62591;55.764;37.718;2024-01-15T05:40:15;48.74;42.79;56.26;;
74234;Laerm;62591;55.764;37.718;2024-01-15T05:42:45;46.18;42.89;54.00;;
74234;Laerm;62591;55.764;37.718;2024-01-15T05:45:16;47.34;42.92;61.63;;
74234;Laerm;62591;55.764;37.718;2024-01-15T05:47:46;48.40;43.08;58.64;;
74234;Laerm;62591;55.764;37.718;2024-01-15T05:50:15;46.33;42.54;56.23;;
74234;Laerm;62591;55.764;37.718;2024-01-15T05:52:44;47.51;43.03;59.10;;
74234;Laerm;62591;55.764;37.718;2024-01-15T05:55:13;45.57;42.57;52.52;;
74234;Laerm;62591;55.764;37.718;2024-01-15T05:57:41;47.45;42.70;57.47;;
74234;Laerm;62591;55.764;37.718;2024-01-15T06:00:11;45.83;42.13;58.96;;
74234;Laerm;62591;55.764;37.718;2024-01-15T06:02:43;46.89;42.55;65.40;;
74234;Laerm;62591;55.764;37.718;2024-01-15T06:05:13;48.89;44.10;66.65;;
74234;Laerm;62591;55.764;37.718;2024-01-15T06:07:42;48.31;43.86;58.31;;
74234;Laerm;62591;55.764;37.718;2024-01-15T06:10:11;46.94;42.54;65.09;;
74234;Laerm;62591;55.764;37.718;2024-01-15T06:12:40;50.58;43.89;66.64;;
74234;Laerm;62591;55.764;37.718;2024-01-15T06:15:09;51.01;42.35;64.34;;
74234;Laerm;62591;55.764;37.718;2024-01-15T06:17:38;66.05;44.62;78.39;;
74234;Laerm;62591;55.764;37.718;2024-01-15T06:20:10;47.14;42.28;57.45;;
74234;Laerm;62591;55.764;37.718;2024-01-15T06:22:39;48.75;42.31;64.32;;
74234;Laerm;62591;55.764;37.718;2024-01-15T06:25:08;51.54;42.32;64.88;;
74234;Laerm;62591;55.764;37.718;2024-01-15T06:27:37;52.25;42.60;67.49;;
74234;Laerm;62591;55.764;37.718;2024-01-15T06:30:08;50.76;43.72;63.63;;
74234;Laerm;62591;55.764;37.718;2024-01-15T06:32:37;49.31;43.75;64.39;;
74234;Laerm;62591;55.764;37.718;2024-01-15T06:35:08;49.22;43.25;69.38;;
74234;Laerm;62591;55.764;37.718;2024-01-15T06:37:39;47.36;42.18;62.68;;
74234;Laerm;62591;55.764;37.718;2024-01-15T06:40:08;46.96;42.21;54.54;;
74234;Laerm;62591;55.764;37.718;2024-01-15T06:42:37;46.10;42.56;55.41;;
74234;Laerm;62591;55.764;37.718;2024-01-15T06:45:07;47.91;41.48;68.31;;
74234;Laerm;62591;55.764;37.718;2024-01-15T06:47:36;46.03;42.42;59.50;;
74234;Laerm;62591;55.764;37.718;2024-01-15T06:50:06;48.08;42.23;68.30;;
74234;Laerm;62591;55.764;37.718;2024-01-15T06:52:36;46.10;42.51;59.80;;
74234;Laerm;62591;55.764;37.718;2024-01-15T06:55:06;47.03;42.61;59.91;;
74234;Laerm;62591;55.764;37.718;2024-01-15T06:57:35;45.99;41.21;57.86;;
74234;Laerm;62591;55.764;37.718;2024-01-15T07:00:06;46.89;41.73;57.62;;
74234;Laerm;62591;55.764;37.718;2024-01-15T07:02:36;46.40;41.95;54.34;;
74234;Laerm;62591;55.764;37.718;2024-01-15T07:05:05;48.83;42.95;57.40;;
74234;Laerm;62591;55.764;37.718;2024-01-15T07:07:33;45.93;41.86;59.77;;
74234;Laerm;62591;55.764;37.718;2024-01-15T07:10:06;47.85;42.64;57.14;;
74234;Laerm;62591;55.764;37.718;2024-01-15T07:12:35;47.12;43.36;61.88;;
74234;Laerm;62591;55.764;37.718;2024-01-15T07:15:04;47.27;42.45;62.57;;
74234;Laerm;62591;55.764;37.718;2024-01-15T07:17:36;47.11;43.24;63.58;;
74234;Laerm;62591;55.764;37.718;2024-01-15T07:20:08;47.52;43.40;64.97;;
74234;Laerm;62591;55.764;37.718;2024-01-15T07:22:37;48.21;42.58;61.52;;
74234;Laerm;62591;55.764;37.718;2024-01-15T07:25:08;46.57;42.38;61.20;;
74234;Laerm;62591;55.764;37.718;2024-01-15T07:27:37;47.40;43.08;67.38;;
74234;Laerm;62591;55.764;37.718;2024-01-15T07:30:07;47.02;42.26;54.74;;
74234;Laerm;62591;55.764;37.718;2024-01-15T07:32:36;52.51;42.53;68.05;;
74234;Laerm;62591;55.764;37.718;2024-01-15T07:35:05;48.20;42.11;67.72;;
74234;Laerm;62591;55.764;37.718;2024-01-15T07:37:35;48.81;42.31;66.82;;
74234;Laerm;62591;55.764;37.718;2024-01-15T07:40:04;46.51;42.74;58.66;;
74234;Laerm;62591;55.764;37.718;2024-01-15T07:42:37;48.05;42.25;61.93;;
74234;Laerm;62591;55.764;37.718;2024-01-15T07:45:06;45.57;42.27;52.25;;
74234;Laerm;62591;55.764;37.718;2024-01-15T07:47:36;46.91;42.59;57.36;;
74234;Laerm;62591;55.764;37.718;2024-01-15T07:50:06;46.99;41.99;62.30;;
74234;Laerm;62591;55.764;37.718;2024-01-15T07:52:35;46.48;41.99;58.73;;
74234;Laerm;62591;55.764;37.718;2024-01-15T07:55:05;45.98;41.73;65.44;;
74234;Laerm;62591;55.764;37.718;2024-01-15T07:57:38;45.06;40.89;52.39;;
74234;Laerm;62591;55.764;37.718;2024-01-15T08:00:07;45.66;42.13;61.60;;
74234;Laerm;62591;55.764;37.718;2024-01-15T08:02:56;45.90;42.43;60.29;;
74234;Laerm;62591;55.764;37.718;2024-01-15T08:05:24;46.05;42.50;59.92;;
74234;Laerm;62591;55.764;37.718;2024-01-15T08:07:53;46.66;42.37;59.38;;
74234;Laerm;62591;55.764;37.718;2024-01-15T08:10:25;48.02;42.58;62.36;;
74234;Laerm;62591;55.764;37.718;2024-01-15T08:12:56;47.40;42.54;59.20;;
74234;Laerm;62591;55.764;37.718;2024-01-15T08:15:25;45.99;42.24;58.27;;
74234;Laerm;62591;55.764;37.718;2024-01-15T08:17:58;49.20;43.26;59.96;;
74234;Laerm;62591;55.764;37.718;2024-01-15T08:20:27;50.92;43.88;60.18;;
74234;Laerm;62591;55.764;37.718;2024-01-15T08:22:56;47.05;42.40;57.39;;
74234;Laerm;62591;55.764;37.718;2024-01-15T08:25:25;47.37;42.67;64.66;;
74234;Laerm;62591;55.764;37.718;2024-01-15T08:27:56;46.91;42.73;59.54;;
74234;Laerm;62591;55.764;37.718;2024-01-15T08:30:25;49.05;43.20;60.82;;
74234;Laerm;62591;55.764;37.718;2024-01-15T08:32:56;50.36;43.19;63.98;;
74234;Laerm;62591;55.764;37.718;2024-01-15T08:35:37;48.41;42.36;63.80;;
74234;Laerm;62591;55.764;37.718;2024-01-15T08:38:06;48.24;42.38;63.58;;
74234;Laerm;62591;55.764;37.718;2024-01-15T08:40:35;48.52;43.44;68.65;;
74234;Laerm;62591;55.764;37.718;2024-01-15T08:43:05;48.11;42.54;64.30;;
74234;Laerm;62591;55.764;37.718;2024-01-15T08:45:35;47.76;42.49;59.94;;
74234;Laerm;62591;55.764;37.718;2024-01-15T08:48:04;49.45;43.38;64.32;;
74234;Laerm;62591;55.764;37.718;2024-01-15T08:50:33;49.16;42.65;64.10;;
74234;Laerm;62591;55.764;37.718;2024-01-15T08:53:02;48.20;42.89;64.64;;
74234;Laerm;62591;55.764;37.718;2024-01-15T08:55:31;48.63;42.83;70.37;;
74234;Laerm;62591;55.764;37.718;2024-01-15T08:58:00;46.28;41.64;66.90;;
74234;Laerm;62591;55.764;37.718;2024-01-15T09:00:30;45.71;42.29;55.88;;
74234;Laerm;62591;55.764;37.718;2024-01-15T09:02:59;45.38;41.59;52.29;;
74234;Laerm;62591;55.764;37.718;2024-01-15T09:05:29;46.55;41.63;59.34;;
74234;Laerm;62591;55.764;37.718;2024-01-15T09:07:58;44.78;41.54;50.87;;
74234;Laerm;62591;55.764;37.718;2024-01-15T09:10:27;45.14;41.49;54.59;;
74234;Laerm;62591;55.764;37.718;2024-01-15T09:12:56;45.46;42.05;59.17;;
74234;Laerm;62591;55.764;37.718;2024-01-15T09:15:25;46.72;41.81;57.75;;
74234;Laerm;62591;55.764;37.718;2024-01-15T09:17:56;48.56;42.33;59.79;;
74234;Laerm;62591;55.764;37.718;2024-01-15T09:20:26;46.83;42.42;58.67;;
74234;Laerm;62591;55.764;37.718;2024-01-15T09:22:55;46.17;42.49;59.89;;
74234;Laerm;62591;55.764;37.718;2024-01-15T09:25:24;47.87;41.28;56.38;;
74234;Laerm;62591;55.764;37.718;2024-01-15T09:27:53;48.48;43.16;60.66;;
74234;Laerm;62591;55.764;37.718;2024-01-15T09:30:22;49.41;43.48;64.51;;
74234;Laerm;62591;55.764;37.718;2024-01-15T09:32:51;47.77;42.94;54.14;;
74234;Laerm;62591;55.764;37.718;2024-01-15T09:35:22;49.23;44.17;58.28;;
74234;Laerm;62591;55.764;37.718;2024-01-15T09:37:51;47.70;44.11;59.74;;
74234;Laerm;62591;55.764;37.718;2024-01-15T09:40:21;47.06;42.48;59.85;;
74234;Laerm;62591;55.764;37.718;2024-01-15T09:42:50;48.33;43.61;54.14;;
74234;Laerm;62591;55.764;37.718;2024-01-15T09:45:20;47.33;42.76;56.33;;
74234;Laerm;62591;55.764;37.718;2024-01-15T09:47:49;48.84;43.42;66.08;;
74234;Laerm;62591;55.764;37.718;2024-01-15T09:50:18;48.18;44.07;53.22;;
74234;Laerm;62591;55.764;37.718;2024-01-15T09:52:49;47.57;43.08;55.51;;
74234;Laerm;62591;55.764;37.718;2024-01-15T09:55:18;47.29;43.13;59.45;;
74234;Laerm;62591;55.764;37.718;2024-01-15T09:57:47;46.98;43.13;52.64;;
74234;Laerm;62591;55.764;37.718;2024-01-15T10:00:17;46.84;42.99;51.33;;
74234;Laerm;62591;55.764;37.718;2024-01-15T10:02:47;47.76;44.07;62.84;;
74234;Laerm;62591;55.764;37.718;2024-01-15T10:05:17;46.68;42.19;60.56;;
74234;Laerm;62591;55.764;37.718;2024-01-15T10:07:46;47.40;42.42;59.55;;
74234;Laerm;62591;55.764;37.718;2024-01-15T10:10:18;48.72;43.23;72.98;;
74234;Laerm;62591;55.764;37.718;2024-01-15T10:12:49;47.73;43.56;58.99;;
74234;Laerm;62591;55.764;37.718;2024-01-15T10:15:22;48.07;41.64;59.67;;
74234;Laerm;62591;55.764;37.718;2024-01-15T10:17:51;47.79;42.79;56.27;;
74234;Laerm;62591;55.764;37.718;2024-01-15T10:20:20;48.30;43.00;59.06;;
74234;Laerm;62591;55.764;37.718;2024-01-15T10:22:50;46.45;41.44;59.31;;
74234;Laerm;62591;55.764;37.718;2024-01-15T10:25:21;46.85;42.06;59.77;;
74234;Laerm;62591;55.764;37.718;2024-01-15T10:28:03;47.29;42.93;58.67;;
74234;Laerm;62591;55.764;37.718;2024-01-15T10:30:32;47.45;42.36;65.08;;
74234;Laerm;62591;55.764;37.718;2024-01-15T10:33:03;48.91;43.88;59.05;;
74234;Laerm;62591;55.764;37.718;2024-01-15T10:35:34;48.39;43.32;63.62;;
74234;Laerm;62591;55.764;37.718;2024-01-15T10:38:03;50.50;43.50;62.07;;
74234;Laerm;62591;55.764;37.718;2024-01-15T10:40:34;50.45;43.98;62.97;;
74234;Laerm;62591;55.764;37.718;2024-01-15T10:43:03;50.33;43.92;69.42;;
74234;Laerm;62591;55.764;37.718;2024-01-15T10:45:33;50.19;43.69;65.21;;
74234;Laerm;62591;55.764;37.718;2024-01-15T10:48:02;50.84;43.56;66.45;;
74234;Laerm;62591;55.764;37.718;2024-01-15T10:50:33;50.41;44.01;64.36;;
74234;Laerm;62591;55.764;37.718;2024-01-15T10:53:03;48.56;43.08;64.09;;
74234;Laerm;62591;55.764;37.718;2024-01-15T10:55:35;48.62;44.07;65.17;;
74234;Laerm;62591;55.764;37.718;2024-01-15T10:58:05;48.50;43.38;63.57;;
74234;Laerm;62591;55.764;37.718;2024-01-15T11:00:35;50.18;43.92;62.61;;
74234;Laerm;62591;55.764;37.718;2024-01-15T11:03:06;50.69;43.79;71.85;;
74234;Laerm;62591;55.764;37.718;2024-01-15T11:05:37;52.39;42.42;71.59;;
74234;Laerm;62591;55.764;37.718;2024-01-15T11:08:07;51.06;44.28;72.18;;
74234;Laerm;62591;55.764;37.718;2024-01-15T11:10:41;50.29;43.66;66.85;;
74234;Laerm;62591;55.764;37.718;2024-01-15T11:13:10;49.75;43.74;64.54;;
74234;Laerm;62591;55.764;37.718;2024-01-15T11:15:55;47.25;43.45;57.34;;
74234;Laerm;62591;55.764;37.718;2024-01-15T11:18:27;46.47;43.22;58.21;;
74234;Laerm;62591;55.764;37.718;2024-01-15T11:21:23;47.59;42.53;59.77;;
74234;Laerm;62591;55.764;37.718;2024-01-15T11:23:55;47.77;42.99;59.85;;
74234;Laerm;62591;55.764;37.718;2024-01-15T11:26:33;48.03;42.53;69.23;;
74234;Laerm;62591;55.764;37.718;2024-01-15T11:29:04;49.90;43.74;68.71;;
74234;Laerm;62591;55.764;37.718;2024-01-15T11:31:58;50.04;43.02;73.41;;
74234;Laerm;62591;55.764;37.718;2024-01-15T11:34:51;50.54;43.04;69.41;;
74234;Laerm;62591;55.764;37.718;2024-01-15T11:37:21;50.95;43.28;67.49;;
74234;Laerm;62591;55.764;37.718;2024-01-15T11:39:53;52.14;43.35;68.95;;
74234;Laerm;62591;55.764;37.718;2024-01-15T11:42:25;51.80;43.95;68.26;;
74234;Laerm;62591;55.764;37.718;2024-01-15T11:44:55;52.27;44.34;67.31;;
74234;Laerm;62591;55.764;37.718;2024-01-15T11:50:27;52.07;43.63;68.98;;
74234;Laerm;62591;55.764;37.718;2024-01-15T11:53:02;51.57;43.06;70.90;;
74234;Laerm;62591;55.764;37.718;2024-01-15T11:55:34;51.92;42.64;68.65;;
74234;Laerm;62591;55.764;37.718;2024-01-15T11:58:08;53.12;42.91;71.92;;
74234;Laerm;62591;55.764;37.718;2024-01-15T12:00:43;54.52;43.23;71.57;;
74234;Laerm;62591;55.764;37.718;2024-01-15T12:03:13;47.13;42.84;67.18;;
74234;Laerm;62591;55.764;37.718;2024-01-15T12:05:42;47.74;42.80;59.55;;
74234;Laerm;62591;55.764;37.718;2024-01-15T12:08:11;47.87;43.52;58.10;;
74234;Laerm;62591;55.764;37.718;2024-01-15T12:10:41;47.31;41.89;58.99;;
74234;Laerm;62591;55.764;37.718;2024-01-15T12:13:17;46.39;41.96;55.89;;
74234;Laerm;62591;55.764;37.718;2024-01-15T12:15:47;50.61;42.77;69.26;;
74234;Laerm;62591;55.764;37.718;2024-01-15T12:18:18;51.32;43.18;69.22;;
74234;Laerm;62591;55.764;37.718;2024-01-15T12:20:47;54.40;43.44;70.66;;
74234;Laerm;62591;55.764;37.718;2024-01-15T12:23:17;53.44;43.60;68.24;;
74234;Laerm;62591;55.764;37.718;2024-01-15T12:25:46;53.40;43.37;72.60;;
74234;Laerm;62591;55.764;37.718;2024-01-15T12:28:17;52.26;42.60;74.31;;
74234;Laerm;62591;55.764;37.718;2024-01-15T12:30:46;47.26;42.57;61.66;;
74234;Laerm;62591;55.764;37.718;2024-01-15T12:33:18;46.13;42.14;59.06;;
74234;Laerm;62591;55.764;37.718;2024-01-15T12:35:48;46.66;42.25;57.79;;
74234;Laerm;62591;55.764;37.718;2024-01-15T12:38:19;47.22;41.60;60.02;;
74234;Laerm;62591;55.764;37.718;2024-01-15T12:40:48;47.04;42.69;64.84;;
74234;Laerm;62591;55.764;37.718;2024-01-15T12:43:19;47.06;42.52;63.33;;
74234;Laerm;62591;55.764;37.718;2024-01-15T12:45:48;47.99;42.79;62.03;;
74234;Laerm;62591;55.764;37.718;2024-01-15T12:48:17;46.71;42.34;64.09;;
74234;Laerm;62591;55.764;37.718;2024-01-15T12:50:46;47.73;42.94;67.27;;
74234;Laerm;62591;55.764;37.718;2024-01-15T12:53:16;47.09;42.06;58.91;;
74234;Laerm;62591;55.764;37.718;2024-01-15T12:55:45;46.59;42.68;54.33;;
74234;Laerm;62591;55.764;37.718;2024-01-15T12:58:16;47.83;43.09;64.77;;
74234;Laerm;62591;55.764;37.718;2024-01-15T13:00:48;48.32;43.40;66.44;;
74234;Laerm;62591;55.764;37.718;2024-01-15T13:03:18;48.81;44.89;64.22;;
74234;Laerm;62591;55.764;37.718;2024-01-15T13:05:48;49.34;44.72;59.61;;
74234;Laerm;62591;55.764;37.718;2024-01-15T13:08:19;49.98;45.48;60.55;;
74234;Laerm;62591;55.764;37.718;2024-01-15T13:10:48;48.80;44.56;61.57;;
74234;Laerm;62591;55.764;37.718;2024-01-15T13:13:16;46.43;42.54;59.46;;
74234;Laerm;62591;55.764;37.718;2024-01-15T13:15:47;46.27;42.16;52.81;;
74234;Laerm;62591;55.764;37.718;2024-01-15T13:18:17;47.08;42.20;58.96;;
74234;Laerm;62591;55.764;37.718;2024-01-15T13:20:46;45.00;41.16;50.58;;
74234;Laerm;62591;55.764;37.718;2024-01-15T13:23:15;46.03;42.39;51.92;;
74234;Laerm;62591;55.764;37.718;2024-01-15T13:25:44;46.66;43.22;52.66;;
74234;Laerm;62591;55.764;37.718;2024-01-15T13:28:13;46.09;42.83;50.52;;
74234;Laerm;62591;55.764;37.718;2024-01-15T13:30:42;47.65;41.85;59.69;;
74234;Laerm;62591;55.764;37.718;2024-01-15T13:33:13;46.30;42.67;56.28;;
74234;Laerm;62591;55.764;37.718;2024-01-15T13:35:42;45.85;42.52;53.82;;
74234;Laerm;62591;55.764;37.718;2024-01-15T13:38:11;46.48;42.97;54.02;;
74234;Laerm;62591;55.764;37.718;2024-01-15T13:40:40;48.22;42.27;57.66;;
74234;Laerm;62591;55.764;37.718;2024-01-15T13:43:09;47.46;42.89;56.13;;
74234;Laerm;62591;55.764;37.718;2024-01-15T13:45:38;47.71;43.52;59.52;;
74234;Laerm;62591;55.764;37.718;2024-01-15T13:48:07;46.48;43.24;57.37;;
74234;Laerm;62591;55.764;37.718;2024-01-15T13:50:37;47.08;43.70;62.69;;
74234;Laerm;62591;55.764;37.718;2024-01-15T13:53:06;48.65;43.17;59.77;;